Time;durP1;ratioP1;P1;durP2;ratioP2;P2;SDS_P1;SDS_P2;PMS_P1;PMS_P2;Temp;Humidity;BMP_temperature;BMP_pressure;BME280_temperature;BME280_humidity;BME280_pressure;Samples;Min_cycle;Max_cycle;Signal;HPM_P1;HPM_P2
2024/01/08 00:00:08;;;;;;;0.30;0.30;;;9.10;89.00;;;;;;4961332;28;20269;-93
2024/01/08 00:02:38;;;;;;;0.83;0.50;;;9.10;89.20;;;;;;4957715;28;20205;-92
2024/01/08 00:05:07;;;;;;;0.67;0.67;;;9.10;89.10;;;;;;4958017;28;20203;-89
2024/01/08 00:07:36;;;;;;;0.30;0.30;;;9.00;88.90;;;;;;4950018;28;20201;-91
2024/01/08 00:10:08;;;;;;;0.30;0.30;;;9.00;89.10;;;;;;4948014;28;20906;-81
2024/01/08 00:12:37;;;;;;;1.10;0.70;;;9.00;89.30;;;;;;4953544;28;20209;-82
2024/01/08 00:15:07;;;;;;;0.37;0.33;;;9.00;89.30;;;;;;4954995;28;20212;-83
2024/01/08 00:17:37;;;;;;;0.40;0.40;;;9.00;89.40;;;;;;4949867;28;20689;-81
2024/01/08 00:20:09;;;;;;;0.30;0.30;;;9.00;89.70;;;;;;4949961;28;20216;-81
2024/01/08 00:22:38;;;;;;;0.50;0.50;;;8.90;89.50;;;;;;4947646;28;20282;-82
2024/01/08 00:25:07;;;;;;;0.30;0.30;;;8.90;89.60;;;;;;4946985;28;20289;-81
2024/01/08 00:27:36;;;;;;;0.50;0.50;;;8.90;89.90;;;;;;4946226;28;20266;-82
2024/01/08 00:30:06;;;;;;;0.30;0.30;;;8.90;89.80;;;;;;4951636;28;20460;-81
2024/01/08 00:32:35;;;;;;;0.40;0.40;;;8.90;90.00;;;;;;4947161;28;20565;-81
2024/01/08 00:35:06;;;;;;;0.30;0.30;;;8.80;90.00;;;;;;4951143;28;20209;-83
2024/01/08 00:37:38;;;;;;;0.30;0.30;;;8.80;90.00;;;;;;4951986;28;20243;-84
2024/01/08 00:40:09;;;;;;;0.30;0.30;;;8.80;90.00;;;;;;4948991;28;20213;-83
2024/01/08 00:42:37;;;;;;;0.30;0.30;;;8.80;90.00;;;;;;4944801;28;20207;-82
2024/01/08 00:45:08;;;;;;;0.40;0.40;;;8.80;90.00;;;;;;4952459;28;20234;-83
2024/01/08 00:47:37;;;;;;;0.30;0.30;;;8.80;90.00;;;;;;4945876;28;20191;-83
2024/01/08 00:50:13;;;;;;;0.57;0.57;;;8.80;90.10;;;;;;4950411;28;20260;-82
2024/01/08 00:52:42;;;;;;;0.40;0.40;;;8.80;90.00;;;;;;4947620;28;20639;-83
2024/01/08 00:55:11;;;;;;;0.30;0.30;;;8.70;90.10;;;;;;4944804;28;20204;-82
2024/01/08 00:57:40;;;;;;;0.47;0.40;;;8.70;90.00;;;;;;4950230;28;20207;-81
2024/01/08 01:00:10;;;;;;;0.33;0.33;;;8.70;90.00;;;;;;4951048;28;20270;-81
2024/01/08 01:02:41;;;;;;;0.63;0.63;;;8.70;90.10;;;;;;4944548;28;20245;-84
2024/01/08 01:05:12;;;;;;;0.30;0.30;;;8.70;90.00;;;;;;4954599;28;20225;-82
2024/01/08 01:07:41;;;;;;;0.30;0.30;;;8.70;90.10;;;;;;4947069;28;20212;-82
2024/01/08 01:10:11;;;;;;;0.30;0.30;;;8.70;90.10;;;;;;4942059;28;20210;-85
2024/01/08 01:12:39;;;;;;;0.30;0.30;;;8.70;90.10;;;;;;4951094;28;20224;-85
2024/01/08 01:15:09;;;;;;;0.60;0.60;;;8.70;90.10;;;;;;4951558;29;20207;-83
2024/01/08 01:17:37;;;;;;;0.50;0.50;;;8.70;90.20;;;;;;4961778;28;20194;-83
2024/01/08 01:20:06;;;;;;;0.93;0.67;;;8.70;90.20;;;;;;4946313;28;20218;-81
2024/01/08 01:22:36;;;;;;;0.30;0.30;;;8.70;90.20;;;;;;4952075;28;20218;-81
2024/01/08 01:25:06;;;;;;;0.30;0.30;;;8.70;90.20;;;;;;4949727;28;20504;-83
2024/01/08 01:27:34;;;;;;;0.30;0.30;;;8.70;90.20;;;;;;4948540;28;20566;-84
2024/01/08 01:30:03;;;;;;;0.30;0.30;;;8.70;90.10;;;;;;4953595;28;20212;-82
2024/01/08 01:32:32;;;;;;;0.30;0.30;;;8.60;90.10;;;;;;4950761;28;20638;-82
2024/01/08 01:35:01;;;;;;;0.80;0.63;;;8.60;90.10;;;;;;4952789;28;20248;-84
2024/01/08 01:37:30;;;;;;;0.30;0.30;;;8.60;90.10;;;;;;4956644;28;20221;-83
2024/01/08 01:40:02;;;;;;;0.30;0.30;;;8.60;90.10;;;;;;4952269;28;20213;-82
2024/01/08 01:42:31;;;;;;;0.23;0.23;;;8.60;90.10;;;;;;4954453;28;20195;-84
2024/01/08 01:45:00;;;;;;;0.30;0.30;;;8.60;90.10;;;;;;4956374;28;20302;-84
2024/01/08 01:47:29;;;;;;;0.30;0.30;;;8.50;90.20;;;;;;4950789;28;20206;-83
2024/01/08 01:49:57;;;;;;;0.30;0.30;;;8.50;90.10;;;;;;4957628;28;20206;-84
2024/01/08 01:52:27;;;;;;;0.53;0.53;;;8.50;90.10;;;;;;4951850;28;20227;-85
2024/01/08 01:54:59;;;;;;;0.30;0.30;;;8.50;90.10;;;;;;4957261;28;20212;-82
2024/01/08 01:57:29;;;;;;;0.30;0.30;;;8.50;90.20;;;;;;4957716;28;20353;-83
2024/01/08 01:59:57;;;;;;;0.30;0.30;;;8.50;90.10;;;;;;4952836;28;20238;-83
2024/01/08 02:02:27;;;;;;;1.60;0.93;;;8.50;90.10;;;;;;4952935;28;20226;-83
2024/01/08 02:04:58;;;;;;;0.30;0.30;;;8.40;90.10;;;;;;4954737;28;20209;-82
2024/01/08 02:07:28;;;;;;;1.17;0.63;;;8.40;90.10;;;;;;4953706;28;20365;-84
2024/01/08 02:09:57;;;;;;;0.50;0.50;;;8.40;90.00;;;;;;4952097;28;20222;-83
2024/01/08 02:12:28;;;;;;;0.30;0.30;;;8.30;90.00;;;;;;4953670;28;20230;-82
2024/01/08 02:14:57;;;;;;;0.30;0.30;;;8.40;90.10;;;;;;4957133;28;20576;-84
2024/01/08 02:17:25;;;;;;;0.30;0.30;;;8.30;90.00;;;;;;4949179;28;20210;-85
2024/01/08 02:19:54;;;;;;;0.67;0.67;;;8.30;90.20;;;;;;4951680;28;20312;-84
2024/01/08 02:22:22;;;;;;;0.43;0.43;;;8.30;90.20;;;;;;4954698;28;20206;-82
2024/01/08 02:24:53;;;;;;;0.53;0.47;;;8.30;90.40;;;;;;4948961;28;20603;-83
2024/01/08 02:27:21;;;;;;;0.20;0.20;;;8.30;90.40;;;;;;4951266;28;20203;-84
2024/01/08 02:29:50;;;;;;;0.30;0.30;;;8.30;90.40;;;;;;4954304;28;20567;-85
2024/01/08 02:32:19;;;;;;;0.30;0.30;;;8.30;90.40;;;;;;4956022;28;20225;-84
2024/01/08 02:34:47;;;;;;;0.40;0.40;;;8.20;90.40;;;;;;4953754;28;20195;-82
2024/01/08 02:37:19;;;;;;;0.30;0.30;;;8.20;90.30;;;;;;4958862;28;20210;-83
2024/01/08 02:39:47;;;;;;;0.47;0.47;;;8.10;90.30;;;;;;4948009;28;20191;-85
2024/01/08 02:42:18;;;;;;;0.30;0.30;;;8.10;90.40;;;;;;4950812;28;20206;-84
2024/01/08 02:44:47;;;;;;;0.30;0.30;;;8.10;90.40;;;;;;4951520;28;20682;-83
2024/01/08 02:47:16;;;;;;;0.30;0.30;;;8.10;90.50;;;;;;4948189;28;20564;-83
2024/01/08 02:49:45;;;;;;;0.27;0.27;;;8.10;90.40;;;;;;4955955;28;20203;-83
2024/01/08 02:52:14;;;;;;;0.30;0.30;;;8.10;90.40;;;;;;4956713;28;20317;-83
2024/01/08 02:54:42;;;;;;;0.30;0.30;;;8.10;90.40;;;;;;4950218;28;20580;-83
2024/01/08 02:57:11;;;;;;;0.30;0.30;;;8.10;90.40;;;;;;4955807;28;20206;-84
2024/01/08 02:59:41;;;;;;;0.30;0.30;;;8.10;90.40;;;;;;4951471;28;20321;-83
2024/01/08 03:02:09;;;;;;;0.30;0.30;;;8.10;90.40;;;;;;4941236;28;20737;-84
2024/01/08 03:04:38;;;;;;;0.30;0.30;;;8.10;90.40;;;;;;4950557;28;20207;-84
2024/01/08 03:07:07;;;;;;;0.40;0.40;;;8.00;90.50;;;;;;4950319;28;20317;-85
2024/01/08 03:09:35;;;;;;;0.30;0.30;;;8.10;90.60;;;;;;4951893;28;20204;-86
2024/01/08 03:12:04;;;;;;;0.83;0.83;;;8.10;90.50;;;;;;4949136;28;20237;-83
2024/01/08 03:14:33;;;;;;;0.60;0.47;;;8.10;90.40;;;;;;4952440;28;20213;-84
2024/01/08 03:17:06;;;;;;;0.30;0.30;;;8.10;90.40;;;;;;4960566;28;20836;-82
2024/01/08 03:19:35;;;;;;;0.40;0.40;;;8.10;90.40;;;;;;4943550;28;20202;-83
2024/01/08 03:22:05;;;;;;;0.30;0.30;;;8.00;90.50;;;;;;4952174;29;20202;-84
2024/01/08 03:24:34;;;;;;;0.30;0.30;;;8.10;90.40;;;;;;4940453;28;20213;-83
2024/01/08 03:27:03;;;;;;;0.30;0.30;;;8.00;90.20;;;;;;4953166;28;20205;-81
2024/01/08 03:29:32;;;;;;;0.30;0.30;;;8.00;90.10;;;;;;4949531;28;20239;-82
2024/01/08 03:32:00;;;;;;;0.50;0.50;;;7.90;90.00;;;;;;4949736;28;20225;-81
2024/01/08 03:34:31;;;;;;;0.30;0.30;;;8.00;90.10;;;;;;4952885;28;20198;-82
2024/01/08 03:37:01;;;;;;;0.63;0.63;;;8.00;90.00;;;;;;4954238;28;20289;-82
2024/01/08 03:39:30;;;;;;;0.30;0.30;;;8.00;90.00;;;;;;4948999;28;20216;-83
2024/01/08 03:42:01;;;;;;;0.43;0.43;;;7.90;89.70;;;;;;4948830;28;20210;-84
2024/01/08 03:44:30;;;;;;;0.30;0.30;;;7.90;90.00;;;;;;4948334;28;20206;-83
2024/01/08 03:46:58;;;;;;;0.30;0.30;;;7.90;89.70;;;;;;4955373;28;20229;-84
2024/01/08 03:49:27;;;;;;;0.30;0.30;;;7.80;89.70;;;;;;4950229;28;21006;-80
2024/01/08 03:51:58;;;;;;;0.40;0.40;;;7.80;89.60;;;;;;4959247;28;22073;-84
2024/01/08 03:54:27;;;;;;;0.37;0.37;;;7.90;89.60;;;;;;4949325;28;20238;-84
2024/01/08 03:56:56;;;;;;;0.30;0.30;;;7.80;89.40;;;;;;4949257;28;20198;-83
2024/01/08 03:59:25;;;;;;;0.73;0.73;;;7.90;89.60;;;;;;4955963;28;20226;-85
2024/01/08 04:01:54;;;;;;;0.70;0.70;;;7.90;89.50;;;;;;4959124;28;20211;-85
2024/01/08 04:04:22;;;;;;;0.30;0.30;;;7.90;89.10;;;;;;4949183;28;20210;-84
2024/01/08 04:06:51;;;;;;;0.40;0.40;;;7.90;88.70;;;;;;4952930;28;20268;-82
2024/01/08 04:09:24;;;;;;;0.30;0.30;;;7.90;87.80;;;;;;4952053;28;20607;-82
2024/01/08 04:11:53;;;;;;;0.30;0.30;;;7.90;87.80;;;;;;4950157;28;20285;-83
2024/01/08 04:14:22;;;;;;;0.30;0.30;;;7.80;87.70;;;;;;4954834;28;20554;-84
2024/01/08 04:16:50;;;;;;;0.37;0.37;;;7.90;87.90;;;;;;4956932;28;20585;-82
2024/01/08 04:19:20;;;;;;;0.30;0.30;;;7.80;87.50;;;;;;4955704;28;20646;-83
2024/01/08 04:21:49;;;;;;;0.30;0.30;;;7.70;86.80;;;;;;4952771;28;20199;-86
2024/01/08 04:24:18;;;;;;;0.40;0.40;;;7.80;86.90;;;;;;4953356;28;20256;-87
2024/01/08 04:26:48;;;;;;;0.70;0.70;;;7.70;86.60;;;;;;4952658;28;20209;-87
2024/01/08 04:29:16;;;;;;;0.40;0.40;;;7.70;86.90;;;;;;4951470;28;20208;-85
2024/01/08 04:31:45;;;;;;;0.30;0.30;;;7.70;86.70;;;;;;4947229;28;20295;-81
2024/01/08 04:34:14;;;;;;;0.40;0.40;;;7.60;86.40;;;;;;4947785;28;20225;-81
2024/01/08 04:36:43;;;;;;;0.40;0.40;;;7.60;86.50;;;;;;4949390;28;20217;-82
2024/01/08 04:39:13;;;;;;;1.07;0.87;;;7.60;86.00;;;;;;4951328;28;20194;-82
2024/01/08 04:41:42;;;;;;;0.63;0.63;;;7.60;86.50;;;;;;4949027;28;20605;-83
2024/01/08 04:44:12;;;;;;;0.30;0.30;;;7.60;86.10;;;;;;4946401;28;20225;-82
2024/01/08 04:46:43;;;;;;;0.50;0.50;;;7.60;86.10;;;;;;4938626;28;20254;-80
2024/01/08 04:49:12;;;;;;;0.30;0.30;;;7.60;85.80;;;;;;4943074;28;20207;-81
2024/01/08 04:51:41;;;;;;;0.77;0.77;;;7.60;85.90;;;;;;4950251;28;20210;-80
2024/01/08 04:54:09;;;;;;;0.40;0.40;;;7.60;85.80;;;;;;4947372;28;20230;-80
2024/01/08 04:56:38;;;;;;;0.67;0.67;;;7.70;86.10;;;;;;4945898;28;20234;-81
2024/01/08 04:59:06;;;;;;;0.30;0.30;;;7.70;85.90;;;;;;4945809;28;20237;-81
2024/01/08 05:01:39;;;;;;;0.70;0.70;;;7.70;85.50;;;;;;4945165;28;20198;-82
2024/01/08 05:04:08;;;;;;;0.50;0.50;;;7.70;85.40;;;;;;4948006;28;20297;-82
2024/01/08 05:06:40;;;;;;;0.60;0.60;;;7.70;85.50;;;;;;4949958;28;20324;-81
2024/01/08 05:09:09;;;;;;;0.60;0.60;;;7.70;85.50;;;;;;4956779;28;20214;-82
2024/01/08 05:11:38;;;;;;;0.50;0.50;;;7.70;85.40;;;;;;4955656;28;20429;-84
2024/01/08 05:14:09;;;;;;;0.60;0.60;;;7.70;85.30;;;;;;4946433;28;20258;-81
2024/01/08 05:16:39;;;;;;;0.30;0.30;;;7.70;85.30;;;;;;4968246;28;20678;-82
2024/01/08 05:19:10;;;;;;;1.13;1.13;;;7.60;85.00;;;;;;4953214;28;20210;-81
2024/01/08 05:21:40;;;;;;;2.50;1.17;;;7.60;84.90;;;;;;4954541;28;20294;-81
2024/01/08 05:24:09;;;;;;;0.50;0.50;;;7.70;84.90;;;;;;4951497;28;20234;-83
2024/01/08 05:26:38;;;;;;;4.47;0.70;;;7.60;84.60;;;;;;4951747;28;20207;-84
2024/01/08 05:29:07;;;;;;;1.07;0.97;;;7.60;84.60;;;;;;4960711;28;20205;-88
2024/01/08 05:31:36;;;;;;;0.40;0.40;;;7.50;84.40;;;;;;4949370;28;20203;-89
2024/01/08 05:34:06;;;;;;;0.47;0.47;;;7.60;84.80;;;;;;4954981;28;20487;-88
2024/01/08 05:36:35;;;;;;;0.40;0.40;;;7.60;84.90;;;;;;4957934;28;20213;-88
2024/01/08 05:39:04;;;;;;;0.47;0.47;;;7.60;84.40;;;;;;4960261;28;20206;-88
2024/01/08 05:41:34;;;;;;;0.50;0.50;;;7.60;84.50;;;;;;4953929;28;20256;-85
2024/01/08 05:44:02;;;;;;;0.40;0.40;;;7.60;84.60;;;;;;4949656;28;20309;-83
2024/01/08 05:46:31;;;;;;;0.57;0.57;;;7.60;84.70;;;;;;4954329;28;20713;-84
2024/01/08 05:49:00;;;;;;;0.40;0.40;;;7.60;84.70;;;;;;4958592;28;20301;-85
2024/01/08 05:51:31;;;;;;;0.60;0.60;;;7.60;84.30;;;;;;4954875;28;20202;-85
2024/01/08 05:54:00;;;;;;;0.80;0.80;;;7.70;84.50;;;;;;4953977;28;20230;-83
2024/01/08 05:56:28;;;;;;;0.40;0.40;;;7.70;84.60;;;;;;4948450;28;20202;-84
2024/01/08 05:58:57;;;;;;;0.40;0.40;;;7.70;84.40;;;;;;4955461;28;20350;-81
2024/01/08 06:01:26;;;;;;;0.60;0.60;;;7.70;84.30;;;;;;4952053;28;20209;-82
2024/01/08 06:03:54;;;;;;;0.53;0.53;;;7.70;84.30;;;;;;4951325;29;20202;-82
2024/01/08 06:06:25;;;;;;;0.30;0.30;;;7.70;84.20;;;;;;4954502;28;20212;-81
2024/01/08 06:08:58;;;;;;;1.90;0.87;;;7.70;83.90;;;;;;4961887;28;20603;-81
2024/01/08 06:11:27;;;;;;;0.50;0.50;;;7.70;83.70;;;;;;4962844;28;20209;-81
2024/01/08 06:13:58;;;;;;;0.87;0.87;;;7.70;83.60;;;;;;4949240;28;20793;-81
2024/01/08 06:16:35;;;;;;;0.47;0.47;;;7.60;83.40;;;;;;4951994;28;20217;-83
2024/01/08 06:19:03;;;;;;;0.30;0.30;;;7.60;83.50;;;;;;4954975;28;20296;-83
2024/01/08 06:21:33;;;;;;;0.73;0.73;;;7.60;83.60;;;;;;4955998;28;20209;-82
2024/01/08 06:24:03;;;;;;;0.80;0.80;;;7.60;83.90;;;;;;4951280;28;20282;-84
2024/01/08 06:26:32;;;;;;;1.53;1.03;;;7.50;83.60;;;;;;4952949;28;20199;-82
2024/01/08 06:29:02;;;;;;;0.33;0.33;;;7.50;83.40;;;;;;4947025;28;20210;-84
2024/01/08 06:31:32;;;;;;;0.50;0.50;;;7.50;83.50;;;;;;4956345;28;20207;-82
2024/01/08 06:34:01;;;;;;;0.53;0.53;;;7.40;83.30;;;;;;4953341;28;20226;-83
2024/01/08 06:36:30;;;;;;;0.50;0.50;;;7.30;82.80;;;;;;4962993;28;20202;-81
2024/01/08 06:38:58;;;;;;;0.70;0.70;;;7.30;83.10;;;;;;4956112;28;20237;-82
2024/01/08 06:41:31;;;;;;;0.73;0.73;;;7.30;83.30;;;;;;4954923;28;20207;-84
2024/01/08 06:43:59;;;;;;;0.53;0.53;;;7.20;83.30;;;;;;4950143;28;20401;-87
2024/01/08 06:46:28;;;;;;;0.67;0.67;;;7.20;83.60;;;;;;4958181;28;20214;-86
2024/01/08 06:48:57;;;;;;;1.27;1.00;;;7.20;83.50;;;;;;4950702;28;20233;-83
2024/01/08 06:51:26;;;;;;;0.50;0.50;;;7.20;83.60;;;;;;4953555;28;20215;-87
2024/01/08 06:53:54;;;;;;;0.67;0.50;;;7.10;83.20;;;;;;4956329;28;20325;-86
2024/01/08 06:56:23;;;;;;;0.30;0.30;;;7.10;83.40;;;;;;4963357;28;20233;-84
2024/01/08 06:59:01;;;;;;;0.47;0.47;;;7.10;83.60;;;;;;4958057;28;20237;-83
2024/01/08 07:01:30;;;;;;;1.27;1.23;;;7.00;83.80;;;;;;4947981;28;20684;-82
2024/01/08 07:03:59;;;;;;;0.47;0.47;;;6.90;83.80;;;;;;4953728;28;20216;-84
2024/01/08 07:06:28;;;;;;;0.63;0.63;;;7.00;83.90;;;;;;4956444;28;20211;-85
2024/01/08 07:08:56;;;;;;;0.60;0.57;;;6.90;84.00;;;;;;4955126;28;20717;-85
2024/01/08 07:11:26;;;;;;;1.53;0.87;;;6.90;84.30;;;;;;4958835;28;20231;-84
2024/01/08 07:13:54;;;;;;;0.53;0.53;;;6.90;83.90;;;;;;4951076;28;20236;-84
2024/01/08 07:16:25;;;;;;;0.40;0.40;;;6.90;83.90;;;;;;4949567;28;20206;-87
2024/01/08 07:18:54;;;;;;;0.50;0.50;;;6.80;83.90;;;;;;4955733;28;20210;-84
2024/01/08 07:21:22;;;;;;;0.57;0.57;;;6.80;84.20;;;;;;4955994;28;20211;-86
2024/01/08 07:23:51;;;;;;;0.97;0.67;;;6.90;84.40;;;;;;4946179;28;20303;-90
2024/01/08 07:26:20;;;;;;;0.60;0.60;;;6.90;84.10;;;;;;4957944;29;20210;-88
2024/01/08 07:28:48;;;;;;;0.50;0.50;;;6.90;84.40;;;;;;4955170;28;20208;-85
2024/01/08 07:31:17;;;;;;;1.03;0.80;;;6.90;84.20;;;;;;4960792;28;20205;-88
2024/01/08 07:33:47;;;;;;;0.73;0.73;;;6.80;83.90;;;;;;4956261;28;20199;-89
2024/01/08 07:36:17;;;;;;;2.23;0.90;;;6.80;83.90;;;;;;4953003;28;20233;-89
2024/01/08 07:38:45;;;;;;;6.60;0.90;;;6.90;84.10;;;;;;4951521;28;20179;-89
2024/01/08 07:41:14;;;;;;;1.63;1.47;;;6.90;83.80;;;;;;4962208;28;20212;-89
2024/01/08 07:43:42;;;;;;;0.40;0.40;;;6.80;84.10;;;;;;4950890;28;20209;-83
2024/01/08 07:46:11;;;;;;;1.23;1.13;;;6.90;84.10;;;;;;4957879;28;20206;-88
2024/01/08 07:48:40;;;;;;;0.50;0.50;;;6.90;83.60;;;;;;4954970;28;20209;-89
2024/01/08 07:51:10;;;;;;;0.87;0.70;;;6.90;83.60;;;;;;4957264;28;20667;-88
2024/01/08 07:53:39;;;;;;;0.80;0.80;;;6.90;83.80;;;;;;4951012;28;20205;-87
2024/01/08 07:56:08;;;;;;;0.40;0.40;;;6.90;83.50;;;;;;4952498;28;20702;-87
2024/01/08 07:58:36;;;;;;;0.70;0.70;;;7.00;83.50;;;;;;4955858;28;20182;-87
2024/01/08 08:01:12;;;;;;;0.40;0.40;;;7.00;83.40;;;;;;4953762;28;20213;-86
2024/01/08 08:03:41;;;;;;;0.57;0.57;;;7.00;83.50;;;;;;4951534;28;20238;-85
2024/01/08 08:06:12;;;;;;;0.80;0.80;;;7.10;83.40;;;;;;4948369;28;20226;-86
2024/01/08 08:08:41;;;;;;;1.77;1.63;;;7.10;83.20;;;;;;4951546;28;20637;-82
2024/01/08 08:11:11;;;;;;;2.80;1.00;;;7.20;82.60;;;;;;4951352;28;20310;-85
2024/01/08 08:13:40;;;;;;;0.60;0.60;;;7.20;82.50;;;;;;4950524;28;20562;-84
2024/01/08 08:16:12;;;;;;;1.17;1.17;;;7.20;82.50;;;;;;4947360;28;20222;-83
2024/01/08 08:18:40;;;;;;;0.50;0.50;;;7.30;82.40;;;;;;4949859;28;20199;-83
2024/01/08 08:21:10;;;;;;;0.50;0.50;;;7.30;82.40;;;;;;4952210;28;20283;-85
2024/01/08 08:23:39;;;;;;;0.90;0.60;;;7.30;81.90;;;;;;4948068;28;20227;-83
2024/01/08 08:26:08;;;;;;;0.60;0.60;;;7.40;81.90;;;;;;4946472;28;20209;-84
2024/01/08 08:28:43;;;;;;;0.70;0.50;;;7.40;82.00;;;;;;4952187;28;20296;-83
2024/01/08 08:31:13;;;;;;;1.43;0.67;;;7.50;82.00;;;;;;4962018;28;20210;-86
2024/01/08 08:33:43;;;;;;;0.50;0.50;;;7.50;81.60;;;;;;4947412;28;20195;-84
2024/01/08 08:36:14;;;;;;;0.50;0.50;;;7.50;80.80;;;;;;4952487;28;20232;-84
2024/01/08 08:38:45;;;;;;;0.50;0.50;;;7.50;79.90;;;;;;4948060;28;20198;-83
2024/01/08 08:41:14;;;;;;;0.43;0.43;;;7.60;79.90;;;;;;4948671;28;20199;-85
2024/01/08 08:43:43;;;;;;;8.93;1.77;;;7.60;80.10;;;;;;4947013;28;20203;-85
2024/01/08 08:46:12;;;;;;;0.57;0.57;;;7.60;79.90;;;;;;4943152;28;20663;-84
2024/01/08 08:48:45;;;;;;;0.83;0.83;;;7.60;79.90;;;;;;4953812;28;20265;-85
2024/01/08 08:51:15;;;;;;;0.30;0.30;;;7.60;79.60;;;;;;4956194;28;20198;-85
2024/01/08 08:53:44;;;;;;;0.40;0.40;;;7.70;79.70;;;;;;4951789;28;20199;-87
2024/01/08 08:56:14;;;;;;;0.67;0.67;;;7.70;79.60;;;;;;4955681;28;20317;-86
2024/01/08 08:58:43;;;;;;;0.97;0.90;;;7.80;79.30;;;;;;4953388;28;20203;-86
2024/01/08 09:01:14;;;;;;;0.90;0.70;;;7.80;79.40;;;;;;4958125;28;20228;-84
2024/01/08 09:03:43;;;;;;;1.77;0.70;;;7.80;78.30;;;;;;4951367;28;20201;-90
2024/01/08 09:06:12;;;;;;;0.80;0.80;;;7.80;78.20;;;;;;4954161;28;20677;-86
2024/01/08 09:08:42;;;;;;;1.83;1.33;;;7.90;78.50;;;;;;4951108;28;20578;-86
2024/01/08 09:11:10;;;;;;;0.60;0.60;;;7.90;78.10;;;;;;4956465;28;20195;-84
2024/01/08 09:13:39;;;;;;;0.97;0.77;;;7.90;77.70;;;;;;4957278;28;20206;-88
2024/01/08 09:16:11;;;;;;;0.80;0.80;;;7.90;77.50;;;;;;4956075;28;20244;-90
2024/01/08 09:18:40;;;;;;;0.67;0.67;;;8.00;77.50;;;;;;4952114;28;20320;-90
2024/01/08 09:21:09;;;;;;;0.93;0.93;;;8.00;76.70;;;;;;4960960;28;20298;-87
2024/01/08 09:23:38;;;;;;;1.90;1.40;;;8.00;77.10;;;;;;4953866;28;20479;-91
2024/01/08 09:26:08;;;;;;;1.90;1.40;;;8.10;77.50;;;;;;4949489;28;20229;-90
2024/01/08 09:28:37;;;;;;;0.70;0.70;;;8.00;75.90;;;;;;4953881;28;20231;-90
2024/01/08 09:31:05;;;;;;;0.77;0.73;;;8.00;76.40;;;;;;4954776;28;20238;-90
2024/01/08 09:33:35;;;;;;;11.03;0.87;;;8.00;76.30;;;;;;4953746;28;20194;-90
2024/01/08 09:36:04;;;;;;;0.40;0.40;;;8.10;76.40;;;;;;4956883;29;20237;-91
2024/01/08 09:38:32;;;;;;;0.67;0.67;;;8.10;75.00;;;;;;4956818;28;20202;-89
2024/01/08 09:41:01;;;;;;;0.60;0.60;;;8.10;75.20;;;;;;4958589;28;20206;-91
2024/01/08 09:43:47;;;;;;;0.40;0.40;;;8.10;75.00;;;;;;4953021;29;20289;-88
2024/01/08 09:46:20;;;;;;;0.80;0.80;;;8.00;74.70;;;;;;4957260;28;20206;-89
2024/01/08 09:48:49;;;;;;;1.70;0.90;;;8.00;74.70;;;;;;4953587;28;20297;-88
2024/01/08 09:51:26;;;;;;;0.50;0.50;;;8.00;75.00;;;;;;4951076;28;20211;-87
2024/01/08 09:53:59;;;;;;;1.23;1.13;;;8.00;75.10;;;;;;4958032;28;20202;-88
2024/01/08 09:56:31;;;;;;;0.57;0.57;;;8.00;74.40;;;;;;4961236;28;20252;-90
2024/01/08 09:59:01;;;;;;;0.40;0.40;;;8.00;74.90;;;;;;4953926;28;20599;-83
2024/01/08 10:01:30;;;;;;;0.40;0.40;;;8.10;74.70;;;;;;4955749;28;20198;-87
2024/01/08 10:04:00;;;;;;;1.27;0.53;;;8.00;74.50;;;;;;4955590;28;20202;-82
2024/01/08 10:06:29;;;;;;;0.70;0.70;;;8.00;74.70;;;;;;4952858;28;20263;-82
2024/01/08 10:08:58;;;;;;;0.57;0.57;;;8.00;73.60;;;;;;4950649;28;20221;-84
2024/01/08 10:11:27;;;;;;;0.73;0.73;;;8.00;73.90;;;;;;4956363;28;20217;-82
2024/01/08 10:13:56;;;;;;;0.37;0.37;;;7.90;73.40;;;;;;4951094;28;20210;-82
2024/01/08 10:16:28;;;;;;;0.63;0.63;;;7.90;73.00;;;;;;4964400;28;20221;-83
2024/01/08 10:19:18;;;;;;;0.67;0.67;;;7.90;72.80;;;;;;4953310;28;20257;-82
2024/01/08 10:21:47;;;;;;;2.77;0.87;;;7.80;72.30;;;;;;4960724;28;20199;-84
2024/01/08 10:24:15;;;;;;;0.40;0.40;;;7.80;73.00;;;;;;4951985;28;20624;-87
2024/01/08 10:26:44;;;;;;;0.73;0.73;;;7.90;73.30;;;;;;4959383;29;20207;-89
2024/01/08 10:29:14;;;;;;;1.47;1.37;;;7.90;73.50;;;;;;4947215;28;20611;-85
2024/01/08 10:31:45;;;;;;;0.87;0.80;;;7.90;73.10;;;;;;4965423;28;20213;-87
2024/01/08 10:34:15;;;;;;;0.70;0.70;;;7.80;72.10;;;;;;4955791;28;20265;-87
2024/01/08 10:36:45;;;;;;;0.50;0.50;;;7.80;72.10;;;;;;4957092;28;20262;-89
2024/01/08 10:39:13;;;;;;;1.03;1.03;;;7.80;72.70;;;;;;4958485;28;20212;-86
2024/01/08 10:41:42;;;;;;;0.43;0.43;;;7.80;72.80;;;;;;4958041;28;20205;-87
2024/01/08 10:44:10;;;;;;;0.57;0.57;;;7.90;73.20;;;;;;4957342;28;20210;-88
2024/01/08 10:46:44;;;;;;;0.40;0.40;;;7.80;72.90;;;;;;4959599;28;20211;-86
2024/01/08 10:49:20;;;;;;;0.40;0.40;;;7.90;72.50;;;;;;4955180;28;20214;-87
2024/01/08 10:51:49;;;;;;;1.63;1.53;;;7.80;72.10;;;;;;4958831;28;20241;-86
2024/01/08 10:54:19;;;;;;;1.13;0.97;;;7.80;72.20;;;;;;4958246;28;20722;-88
2024/01/08 10:56:51;;;;;;;0.63;0.63;;;7.70;71.40;;;;;;4959360;28;20222;-88
2024/01/08 10:59:23;;;;;;;0.80;0.80;;;7.70;71.80;;;;;;4960198;28;20277;-88
2024/01/08 11:01:52;;;;;;;0.50;0.50;;;7.70;71.20;;;;;;4955245;28;20241;-87
2024/01/08 11:04:22;;;;;;;1.30;1.20;;;7.60;71.90;;;;;;4957453;28;20203;-87
2024/01/08 11:06:51;;;;;;;0.80;0.80;;;7.60;71.90;;;;;;4957693;28;20202;-84
2024/01/08 11:09:26;;;;;;;0.63;0.63;;;7.70;72.20;;;;;;4956136;28;20749;-86
2024/01/08 11:11:56;;;;;;;1.80;1.37;;;7.70;71.80;;;;;;4959680;28;20193;-90
2024/01/08 11:14:25;;;;;;;0.63;0.63;;;7.60;71.90;;;;;;4956828;28;20277;-85
2024/01/08 11:16:55;;;;;;;0.40;0.40;;;7.60;71.60;;;;;;4955793;28;20226;-84
2024/01/08 11:19:28;;;;;;;0.40;0.40;;;7.60;71.40;;;;;;4963604;28;20205;-85
2024/01/08 11:22:09;;;;;;;1.23;0.90;;;7.50;71.30;;;;;;4956222;28;20202;-87
2024/01/08 11:24:37;;;;;;;0.70;0.70;;;7.50;71.50;;;;;;4953189;28;20693;-86
2024/01/08 11:27:06;;;;;;;3.90;1.23;;;7.50;71.60;;;;;;4960551;28;20576;-86
2024/01/08 11:29:35;;;;;;;1.03;0.90;;;7.50;72.10;;;;;;4954613;28;20206;-84
2024/01/08 11:32:52;;;;;;;1.07;1.07;;;7.50;72.40;;;;;;4956294;28;20202;-86
2024/01/08 11:35:29;;;;;;;1.00;0.97;;;7.50;71.60;;;;;;4958296;28;20203;-85
2024/01/08 11:38:34;;;;;;;0.80;0.80;;;7.50;72.10;;;;;;4948807;28;20230;-87
2024/01/08 11:41:03;;;;;;;0.63;0.63;;;7.50;72.10;;;;;;4953551;28;20201;-86
2024/01/08 11:43:33;;;;;;;0.70;0.70;;;7.40;71.70;;;;;;4952836;28;20605;-84
2024/01/08 11:46:04;;;;;;;1.00;0.93;;;7.40;73.60;;;;;;4949298;28;20209;-86
2024/01/08 11:48:32;;;;;;;4.20;1.33;;;7.40;71.60;;;;;;4953893;28;20222;-85
2024/01/08 11:51:02;;;;;;;0.73;0.73;;;7.40;71.60;;;;;;4956821;28;20194;-88
2024/01/08 11:53:32;;;;;;;0.63;0.63;;;7.30;71.50;;;;;;4953924;28;20573;-85
2024/01/08 11:56:04;;;;;;;0.60;0.60;;;7.30;71.80;;;;;;4956913;28;20237;-86
2024/01/08 11:58:32;;;;;;;0.83;0.83;;;7.30;71.70;;;;;;4960979;28;20605;-91
2024/01/08 12:01:16;;;;;;;0.73;0.73;;;7.30;71.90;;;;;;4950136;28;20202;-85
2024/01/08 12:03:45;;;;;;;0.43;0.43;;;7.30;71.50;;;;;;4951024;28;20210;-87
2024/01/08 12:06:15;;;;;;;1.27;1.17;;;7.20;71.40;;;;;;4956267;28;20209;-86
2024/01/08 12:08:44;;;;;;;0.87;0.80;;;7.20;71.50;;;;;;4958416;28;20205;-88
2024/01/08 12:11:12;;;;;;;1.00;1.00;;;7.30;71.80;;;;;;4958022;28;20297;-91
2024/01/08 12:13:41;;;;;;;0.83;0.83;;;7.20;70.90;;;;;;4952832;28;20209;-91
2024/01/08 12:16:12;;;;;;;0.57;0.57;;;7.20;70.70;;;;;;4962135;28;20207;-85
2024/01/08 12:18:41;;;;;;;3.70;2.40;;;7.20;71.30;;;;;;4953673;28;20203;-85
2024/01/08 12:21:11;;;;;;;0.83;0.83;;;7.20;70.80;;;;;;4962080;28;20202;-86
2024/01/08 12:23:41;;;;;;;0.53;0.53;;;7.10;70.10;;;;;;4957228;28;20206;-84
2024/01/08 12:26:10;;;;;;;1.00;0.70;;;7.20;70.50;;;;;;4954167;28;20484;-85
2024/01/08 12:28:42;;;;;;;0.80;0.80;;;7.10;70.60;;;;;;4949525;28;20218;-86
2024/01/08 12:31:11;;;;;;;0.70;0.70;;;7.20;71.00;;;;;;4954142;28;20270;-85
2024/01/08 12:33:41;;;;;;;1.43;1.17;;;7.10;70.50;;;;;;4947116;28;20581;-86
2024/01/08 12:36:10;;;;;;;0.40;0.40;;;7.20;70.50;;;;;;4951144;28;20195;-86
2024/01/08 12:38:39;;;;;;;1.30;1.20;;;7.20;70.50;;;;;;4958146;28;20219;-83
2024/01/08 12:41:09;;;;;;;1.50;1.40;;;7.20;70.40;;;;;;4956926;28;20233;-84
2024/01/08 12:43:38;;;;;;;0.60;0.60;;;7.20;70.60;;;;;;4956591;28;20199;-83
2024/01/08 12:46:06;;;;;;;2.27;0.87;;;7.20;70.70;;;;;;4953835;28;20210;-84
2024/01/08 12:48:38;;;;;;;0.40;0.40;;;7.20;70.80;;;;;;4955242;28;20229;-85
2024/01/08 12:51:09;;;;;;;0.90;0.90;;;7.20;71.10;;;;;;4952903;28;20190;-86
2024/01/08 12:53:38;;;;;;;0.80;0.80;;;7.20;71.00;;;;;;4955459;29;20203;-84
2024/01/08 12:56:10;;;;;;;2.93;1.10;;;7.30;71.40;;;;;;4950254;28;20209;-81
2024/01/08 12:58:39;;;;;;;2.03;1.30;;;7.20;70.70;;;;;;4958488;28;20246;-86
2024/01/08 13:01:07;;;;;;;0.60;0.60;;;7.20;70.50;;;;;;4961498;28;20210;-81
2024/01/08 13:03:36;;;;;;;1.23;1.13;;;7.20;70.70;;;;;;4954216;28;20271;-82
2024/01/08 13:06:07;;;;;;;0.73;0.53;;;7.10;70.90;;;;;;4946606;28;20433;-84
2024/01/08 13:08:36;;;;;;;0.87;0.87;;;7.10;71.00;;;;;;4952586;28;20237;-83
2024/01/08 13:11:04;;;;;;;0.80;0.80;;;7.10;71.30;;;;;;4954407;28;20234;-82